If you wish to contribute or participate in the discussions about articles you are invited to join SKYbrary as a registered user

 Actions

Bosaso Airport

From SKYbrary Wiki

HCMF
Airport
ICAO: HCMF
Summary
Name Bosaso Airport
Region Africa
Territory Somalia SO.gif
Location Bosaso
Serving
Coordinates 11° 16' 32.00" N, 49° 9' 0.00" E
Runways
Designator Length Width Surface ROPS


METAR
Observation HCMF 111000Z 07020KT 9999 FEW033 30/24 Q1008
Station BOSASO
Date/Time 11 April 2019 10:00:00
Wind direction 70°
Wind speed 20 kts
Lowest cloud amount few clouds
Temperature 30°C
Dew point 24°C
Humidity 70%
QNH 1008 hPa
Weather condition n/a

Bender Qassim International Airport

ICAO: HCMF IATA: BSA

Description

Bender Qassim International Airport, also known as Bosaso Airport, is an airport in Somalia. It is the third largest airport in the country after the Aden Adde International Airport in Mogadishu and the Hargeisa International Airport in Hargeisa.

Climatology

Maps

Terrain

Loading map...

Airport Layout

Loading map...


Accidents & Serious Incidents at or in vicinity of HCMF

None on SKYbrary